sensor_id;sensor_type;location;lat;lon;timestamp;temperature;humidity
1602;DHT22;794;48.592;9.634;2023-02-01T00:00:14;4.10;1.00
1602;DHT22;794;48.592;9.634;2023-02-01T00:02:41;4.20;1.00
1602;DHT22;794;48.592;9.634;2023-02-01T00:05:10;4.00;1.00
1602;DHT22;794;48.592;9.634;2023-02-01T00:07:37;3.80;1.00
1602;DHT22;794;48.592;9.634;2023-02-01T00:10:06;4.40;1.00
1602;DHT22;794;48.592;9.634;2023-02-01T00:12:33;3.80;1.00
1602;DHT22;794;48.592;9.634;2023-02-01T00:15:00;4.10;1.00
1602;DHT22;794;48.592;9.634;2023-02-01T00:17:27;4.00;1.00
1602;DHT22;794;48.592;9.634;2023-02-01T00:19:54;3.70;1.00
1602;DHT22;794;48.592;9.634;2023-02-01T00:22:23;4.30;1.00
1602;DHT22;794;48.592;9.634;2023-02-01T00:24:50;3.90;1.00
1602;DHT22;794;48.592;9.634;2023-02-01T00:27:16;4.00;1.00
1602;DHT22;794;48.592;9.634;2023-02-01T00:29:46;3.70;1.00
1602;DHT22;794;48.592;9.634;2023-02-01T00:32:13;4.80;1.00
1602;DHT22;794;48.592;9.634;2023-02-01T00:34:40;4.20;1.00
1602;DHT22;794;48.592;9.634;2023-02-01T00:37:07;4.10;1.00
1602;DHT22;794;48.592;9.634;2023-02-01T00:39:36;3.90;1.00
1602;DHT22;794;48.592;9.634;2023-02-01T00:42:03;4.00;1.00
1602;DHT22;794;48.592;9.634;2023-02-01T00:44:30;4.00;1.00
1602;DHT22;794;48.592;9.634;2023-02-01T00:47:00;4.10;1.00
1602;DHT22;794;48.592;9.634;2023-02-01T00:49:27;4.40;1.00
1602;DHT22;794;48.592;9.634;2023-02-01T00:51:54;3.90;1.00
1602;DHT22;794;48.592;9.634;2023-02-01T00:54:23;4.00;1.00
1602;DHT22;794;48.592;9.634;2023-02-01T00:56:52;4.00;1.00
1602;DHT22;794;48.592;9.634;2023-02-01T00:59:19;4.50;1.00
1602;DHT22;794;48.592;9.634;2023-02-01T01:01:46;4.00;1.00
1602;DHT22;794;48.592;9.634;2023-02-01T01:04:13;3.70;1.00
1602;DHT22;794;48.592;9.634;2023-02-01T01:06:40;4.10;1.00
1602;DHT22;794;48.592;9.634;2023-02-01T01:09:07;3.80;1.00
1602;DHT22;794;48.592;9.634;2023-02-01T01:11:36;3.80;1.00
1602;DHT22;794;48.592;9.634;2023-02-01T01:14:05;4.30;1.00
1602;DHT22;794;48.592;9.634;2023-02-01T01:16:33;4.10;1.00
1602;DHT22;794;48.592;9.634;2023-02-01T01:19:00;4.00;1.00
1602;DHT22;794;48.592;9.634;2023-02-01T01:21:27;3.90;1.00
1602;DHT22;794;48.592;9.634;2023-02-01T01:23:54;4.10;1.00
1602;DHT22;794;48.592;9.634;2023-02-01T01:26:23;3.90;1.00
1602;DHT22;794;48.592;9.634;2023-02-01T01:28:51;3.70;1.00
1602;DHT22;794;48.592;9.634;2023-02-01T01:31:20;4.20;1.00
1602;DHT22;794;48.592;9.634;2023-02-01T01:33:48;4.00;1.00
1602;DHT22;794;48.592;9.634;2023-02-01T01:36:16;3.80;1.00
1602;DHT22;794;48.592;9.634;2023-02-01T01:38:43;4.10;1.00
1602;DHT22;794;48.592;9.634;2023-02-01T01:41:15;3.90;1.00
1602;DHT22;794;48.592;9.634;2023-02-01T01:43:51;3.70;1.00
1602;DHT22;794;48.592;9.634;2023-02-01T01:46:21;3.90;1.00
1602;DHT22;794;48.592;9.634;2023-02-01T01:48:53;3.90;1.00
1602;DHT22;794;48.592;9.634;2023-02-01T01:51:24;3.90;1.00
1602;DHT22;794;48.592;9.634;2023-02-01T01:53:58;4.00;1.00
1602;DHT22;794;48.592;9.634;2023-02-01T01:56:27;4.30;1.00
1602;DHT22;794;48.592;9.634;2023-02-01T01:58:56;3.90;1.00
1602;DHT22;794;48.592;9.634;2023-02-01T02:01:24;3.90;1.00
1602;DHT22;794;48.592;9.634;2023-02-01T02:03:52;4.10;1.00
1602;DHT22;794;48.592;9.634;2023-02-01T02:06:28;4.20;1.00
1602;DHT22;794;48.592;9.634;2023-02-01T02:08:57;4.10;1.00
1602;DHT22;794;48.592;9.634;2023-02-01T02:11:24;4.00;1.00
1602;DHT22;794;48.592;9.634;2023-02-01T02:13:53;4.00;1.00
1602;DHT22;794;48.592;9.634;2023-02-01T02:25:46;4.10;1.00
1602;DHT22;794;48.592;9.634;2023-02-01T02:28:31;4.10;1.00
1602;DHT22;794;48.592;9.634;2023-02-01T02:34:06;4.20;1.00
1602;DHT22;794;48.592;9.634;2023-02-01T02:36:41;4.20;1.00
1602;DHT22;794;48.592;9.634;2023-02-01T02:39:17;4.00;1.00
1602;DHT22;794;48.592;9.634;2023-02-01T02:41:53;4.20;1.00
1602;DHT22;794;48.592;9.634;2023-02-01T02:44:46;4.20;1.00
1602;DHT22;794;48.592;9.634;2023-02-01T02:47:39;4.30;1.00
1602;DHT22;794;48.592;9.634;2023-02-01T02:50:17;4.50;1.00
1602;DHT22;794;48.592;9.634;2023-02-01T02:53:10;4.30;1.00
1602;DHT22;794;48.592;9.634;2023-02-01T02:56:02;3.80;1.00
1602;DHT22;794;48.592;9.634;2023-02-01T02:58:48;4.30;1.00
1602;DHT22;794;48.592;9.634;2023-02-01T03:01:33;4.30;1.00
1602;DHT22;794;48.592;9.634;2023-02-01T03:04:17;4.10;1.00
1602;DHT22;794;48.592;9.634;2023-02-01T03:06:47;4.50;1.00
1602;DHT22;794;48.592;9.634;2023-02-01T03:09:18;3.90;1.00
1602;DHT22;794;48.592;9.634;2023-02-01T03:11:49;4.50;1.00
1602;DHT22;794;48.592;9.634;2023-02-01T03:14:38;4.80;1.00
1602;DHT22;794;48.592;9.634;2023-02-01T03:17:10;4.10;1.00
1602;DHT22;794;48.592;9.634;2023-02-01T03:19:41;4.30;1.00
1602;DHT22;794;48.592;9.634;2023-02-01T03:22:17;4.40;1.00
1602;DHT22;794;48.592;9.634;2023-02-01T03:24:49;4.00;1.00
1602;DHT22;794;48.592;9.634;2023-02-01T03:27:21;4.30;1.00
1602;DHT22;794;48.592;9.634;2023-02-01T03:29:52;4.10;1.00
1602;DHT22;794;48.592;9.634;2023-02-01T03:32:21;4.30;1.00
1602;DHT22;794;48.592;9.634;2023-02-01T03:34:50;4.50;1.00
1602;DHT22;794;48.592;9.634;2023-02-01T03:37:23;4.20;1.00
1602;DHT22;794;48.592;9.634;2023-02-01T03:39:55;4.40;1.00
1602;DHT22;794;48.592;9.634;2023-02-01T03:42:29;4.30;1.00
1602;DHT22;794;48.592;9.634;2023-02-01T03:45:01;4.40;1.00
1602;DHT22;794;48.592;9.634;2023-02-01T03:47:34;4.20;1.00
1602;DHT22;794;48.592;9.634;2023-02-01T03:50:04;4.50;1.00
1602;DHT22;794;48.592;9.634;2023-02-01T03:52:37;4.30;1.00
1602;DHT22;794;48.592;9.634;2023-02-01T03:55:07;4.50;1.00
1602;DHT22;794;48.592;9.634;2023-02-01T03:57:37;4.50;1.00
1602;DHT22;794;48.592;9.634;2023-02-01T04:00:06;4.10;1.00
1602;DHT22;794;48.592;9.634;2023-02-01T04:02:34;4.40;1.00
1602;DHT22;794;48.592;9.634;2023-02-01T04:05:01;4.10;1.00
1602;DHT22;794;48.592;9.634;2023-02-01T04:07:28;5.10;1.00
1602;DHT22;794;48.592;9.634;2023-02-01T04:09:56;4.20;1.00
1602;DHT22;794;48.592;9.634;2023-02-01T04:12:23;4.10;1.00
1602;DHT22;794;48.592;9.634;2023-02-01T04:14:50;4.00;1.00
1602;DHT22;794;48.592;9.634;2023-02-01T04:17:18;4.40;1.00
1602;DHT22;794;48.592;9.634;2023-02-01T04:19:45;4.10;1.00
1602;DHT22;794;48.592;9.634;2023-02-01T04:22:13;4.10;1.00
1602;DHT22;794;48.592;9.634;2023-02-01T04:24:40;4.30;1.00
1602;DHT22;794;48.592;9.634;2023-02-01T04:27:08;4.30;1.00
1602;DHT22;794;48.592;9.634;2023-02-01T04:29:35;4.40;1.00
1602;DHT22;794;48.592;9.634;2023-02-01T04:32:02;4.30;1.00
1602;DHT22;794;48.592;9.634;2023-02-01T04:34:29;4.30;1.00
1602;DHT22;794;48.592;9.634;2023-02-01T04:36:56;4.30;1.00
1602;DHT22;794;48.592;9.634;2023-02-01T04:39:23;4.00;1.00
1602;DHT22;794;48.592;9.634;2023-02-01T04:41:50;4.10;1.00
1602;DHT22;794;48.592;9.634;2023-02-01T04:44:19;4.20;1.00
1602;DHT22;794;48.592;9.634;2023-02-01T04:46:47;4.20;1.00
1602;DHT22;794;48.592;9.634;2023-02-01T04:49:15;4.30;1.00
1602;DHT22;794;48.592;9.634;2023-02-01T04:51:42;4.40;1.00
1602;DHT22;794;48.592;9.634;2023-02-01T04:54:09;4.10;1.00
1602;DHT22;794;48.592;9.634;2023-02-01T04:56:38;5.00;1.00
1602;DHT22;794;48.592;9.634;2023-02-01T04:59:05;4.20;1.00
1602;DHT22;794;48.592;9.634;2023-02-01T05:01:34;4.20;1.00
1602;DHT22;794;48.592;9.634;2023-02-01T05:04:00;4.80;1.00
1602;DHT22;794;48.592;9.634;2023-02-01T05:06:27;4.50;1.00
1602;DHT22;794;48.592;9.634;2023-02-01T05:08:54;5.40;1.00
1602;DHT22;794;48.592;9.634;2023-02-01T05:11:21;4.30;1.00
1602;DHT22;794;48.592;9.634;2023-02-01T05:14:06;4.10;1.00
1602;DHT22;794;48.592;9.634;2023-02-01T05:16:35;4.30;1.00
1602;DHT22;794;48.592;9.634;2023-02-01T05:19:02;5.70;1.00
1602;DHT22;794;48.592;9.634;2023-02-01T05:21:29;4.30;1.00
1602;DHT22;794;48.592;9.634;2023-02-01T05:23:56;4.00;1.00
1602;DHT22;794;48.592;9.634;2023-02-01T05:26:42;4.30;1.00
1602;DHT22;794;48.592;9.634;2023-02-01T05:29:10;4.10;1.00
1602;DHT22;794;48.592;9.634;2023-02-01T05:31:39;4.50;1.00
1602;DHT22;794;48.592;9.634;2023-02-01T05:34:07;4.30;1.00
1602;DHT22;794;48.592;9.634;2023-02-01T05:36:34;4.10;1.00
1602;DHT22;794;48.592;9.634;2023-02-01T05:39:01;4.20;1.00
1602;DHT22;794;48.592;9.634;2023-02-01T05:41:29;4.40;1.00
1602;DHT22;794;48.592;9.634;2023-02-01T05:43:56;4.70;1.00
1602;DHT22;794;48.592;9.634;2023-02-01T05:46:23;4.20;1.00
1602;DHT22;794;48.592;9.634;2023-02-01T05:48:51;4.50;1.00
1602;DHT22;794;48.592;9.634;2023-02-01T05:51:18;4.10;1.00
1602;DHT22;794;48.592;9.634;2023-02-01T05:53:45;4.10;1.00
1602;DHT22;794;48.592;9.634;2023-02-01T05:56:12;4.00;1.00
1602;DHT22;794;48.592;9.634;2023-02-01T05:58:39;4.10;1.00
1602;DHT22;794;48.592;9.634;2023-02-01T06:01:06;4.40;1.00
1602;DHT22;794;48.592;9.634;2023-02-01T06:03:33;4.40;1.00
1602;DHT22;794;48.592;9.634;2023-02-01T06:06:02;4.30;1.00
1602;DHT22;794;48.592;9.634;2023-02-01T06:08:29;4.40;1.00
1602;DHT22;794;48.592;9.634;2023-02-01T06:11:00;4.40;1.00
1602;DHT22;794;48.592;9.634;2023-02-01T06:13:27;4.30;1.00
1602;DHT22;794;48.592;9.634;2023-02-01T06:15:54;4.60;1.00
1602;DHT22;794;48.592;9.634;2023-02-01T06:18:22;4.60;1.00
1602;DHT22;794;48.592;9.634;2023-02-01T06:20:53;4.60;1.00
1602;DHT22;794;48.592;9.634;2023-02-01T06:23:21;4.50;1.00
1602;DHT22;794;48.592;9.634;2023-02-01T06:25:50;4.40;1.00
1602;DHT22;794;48.592;9.634;2023-02-01T06:28:17;4.20;1.00
1602;DHT22;794;48.592;9.634;2023-02-01T06:30:45;4.60;1.00
1602;DHT22;794;48.592;9.634;2023-02-01T06:33:12;4.40;1.00
1602;DHT22;794;48.592;9.634;2023-02-01T06:35:41;4.30;1.00
1602;DHT22;794;48.592;9.634;2023-02-01T06:38:10;4.20;1.00
1602;DHT22;794;48.592;9.634;2023-02-01T06:40:39;4.20;1.00
1602;DHT22;794;48.592;9.634;2023-02-01T06:43:06;4.30;1.00
1602;DHT22;794;48.592;9.634;2023-02-01T06:45:33;4.10;1.00
1602;DHT22;794;48.592;9.634;2023-02-01T06:48:00;5.10;1.00
1602;DHT22;794;48.592;9.634;2023-02-01T06:50:27;3.90;1.00
1602;DHT22;794;48.592;9.634;2023-02-01T06:52:55;4.20;1.00
1602;DHT22;794;48.592;9.634;2023-02-01T06:55:22;3.90;1.00
1602;DHT22;794;48.592;9.634;2023-02-01T06:57:54;4.00;1.00
1602;DHT22;794;48.592;9.634;2023-02-01T07:00:22;4.20;1.00
1602;DHT22;794;48.592;9.634;2023-02-01T07:02:50;4.10;1.00
1602;DHT22;794;48.592;9.634;2023-02-01T07:05:17;4.10;1.00
1602;DHT22;794;48.592;9.634;2023-02-01T07:07:44;4.00;1.00
1602;DHT22;794;48.592;9.634;2023-02-01T07:10:11;4.40;1.00
1602;DHT22;794;48.592;9.634;2023-02-01T07:12:38;3.90;1.00
1602;DHT22;794;48.592;9.634;2023-02-01T07:15:07;5.10;1.00
1602;DHT22;794;48.592;9.634;2023-02-01T07:17:34;3.80;1.00
1602;DHT22;794;48.592;9.634;2023-02-01T07:20:01;4.20;1.00
1602;DHT22;794;48.592;9.634;2023-02-01T07:22:29;4.10;1.00
1602;DHT22;794;48.592;9.634;2023-02-01T07:24:56;4.20;1.00
1602;DHT22;794;48.592;9.634;2023-02-01T07:27:23;4.40;1.00
1602;DHT22;794;48.592;9.634;2023-02-01T07:29:51;4.10;1.00
1602;DHT22;794;48.592;9.634;2023-02-01T07:32:20;4.30;1.00
1602;DHT22;794;48.592;9.634;2023-02-01T07:34:47;4.20;1.00
1602;DHT22;794;48.592;9.634;2023-02-01T07:37:14;4.70;1.00
1602;DHT22;794;48.592;9.634;2023-02-01T07:39:41;4.10;1.00
1602;DHT22;794;48.592;9.634;2023-02-01T07:42:08;4.50;1.00
1602;DHT22;794;48.592;9.634;2023-02-01T07:44:35;4.10;1.00
1602;DHT22;794;48.592;9.634;2023-02-01T07:47:03;4.20;1.00
1602;DHT22;794;48.592;9.634;2023-02-01T07:49:32;4.30;1.00
1602;DHT22;794;48.592;9.634;2023-02-01T07:52:01;4.30;1.00
1602;DHT22;794;48.592;9.634;2023-02-01T07:54:29;4.70;1.00
1602;DHT22;794;48.592;9.634;2023-02-01T07:56:56;4.20;1.00
1602;DHT22;794;48.592;9.634;2023-02-01T07:59:24;4.30;1.00
1602;DHT22;794;48.592;9.634;2023-02-01T08:01:51;4.50;1.00
1602;DHT22;794;48.592;9.634;2023-02-01T08:04:20;4.30;1.00
1602;DHT22;794;48.592;9.634;2023-02-01T08:06:50;5.30;1.00
1602;DHT22;794;48.592;9.634;2023-02-01T08:09:18;4.80;1.00
1602;DHT22;794;48.592;9.634;2023-02-01T08:11:46;4.80;1.00
1602;DHT22;794;48.592;9.634;2023-02-01T08:14:14;5.10;1.00
1602;DHT22;794;48.592;9.634;2023-02-01T08:16:41;4.70;1.00
1602;DHT22;794;48.592;9.634;2023-02-01T08:19:09;5.00;1.00
1602;DHT22;794;48.592;9.634;2023-02-01T08:21:37;4.80;1.00
1602;DHT22;794;48.592;9.634;2023-02-01T08:24:08;4.40;1.00
1602;DHT22;794;48.592;9.634;2023-02-01T08:26:39;4.80;1.00
1602;DHT22;794;48.592;9.634;2023-02-01T08:29:11;4.90;1.00
1602;DHT22;794;48.592;9.634;2023-02-01T08:31:42;4.90;1.00
1602;DHT22;794;48.592;9.634;2023-02-01T08:34:09;4.90;1.00
1602;DHT22;794;48.592;9.634;2023-02-01T08:36:38;4.70;1.00
1602;DHT22;794;48.592;9.634;2023-02-01T08:39:08;4.80;1.00
1602;DHT22;794;48.592;9.634;2023-02-01T08:41:36;4.70;1.00
1602;DHT22;794;48.592;9.634;2023-02-01T08:44:03;4.90;1.00
1602;DHT22;794;48.592;9.634;2023-02-01T08:46:30;5.00;1.00
1602;DHT22;794;48.592;9.634;2023-02-01T08:48:57;5.10;1.00
1602;DHT22;794;48.592;9.634;2023-02-01T08:51:26;5.00;1.00
1602;DHT22;794;48.592;9.634;2023-02-01T08:53:53;5.10;1.00
1602;DHT22;794;48.592;9.634;2023-02-01T08:56:21;5.50;1.00
1602;DHT22;794;48.592;9.634;2023-02-01T08:58:49;5.50;1.00
1602;DHT22;794;48.592;9.634;2023-02-01T09:01:17;4.80;1.00
1602;DHT22;794;48.592;9.634;2023-02-01T09:03:45;4.80;1.00
1602;DHT22;794;48.592;9.634;2023-02-01T09:06:14;5.00;1.00
1602;DHT22;794;48.592;9.634;2023-02-01T09:08:42;4.90;1.00
1602;DHT22;794;48.592;9.634;2023-02-01T09:11:12;4.90;1.00
1602;DHT22;794;48.592;9.634;2023-02-01T09:13:41;4.70;1.00
1602;DHT22;794;48.592;9.634;2023-02-01T09:16:08;5.00;1.00
1602;DHT22;794;48.592;9.634;2023-02-01T09:18:36;4.90;1.00
1602;DHT22;794;48.592;9.634;2023-02-01T09:21:04;4.80;1.00
1602;DHT22;794;48.592;9.634;2023-02-01T09:23:32;4.90;1.00
1602;DHT22;794;48.592;9.634;2023-02-01T09:26:01;5.50;1.00
1602;DHT22;794;48.592;9.634;2023-02-01T09:28:29;4.80;1.00
1602;DHT22;794;48.592;9.634;2023-02-01T09:30:59;4.90;1.00
1602;DHT22;794;48.592;9.634;2023-02-01T09:33:27;5.30;1.00
1602;DHT22;794;48.592;9.634;2023-02-01T09:35:58;5.10;1.00
1602;DHT22;794;48.592;9.634;2023-02-01T09:38:25;4.90;1.00
1602;DHT22;794;48.592;9.634;2023-02-01T09:40:54;4.80;1.00
1602;DHT22;794;48.592;9.634;2023-02-01T09:43:32;5.10;1.00
1602;DHT22;794;48.592;9.634;2023-02-01T09:46:18;5.00;1.00
1602;DHT22;794;48.592;9.634;2023-02-01T09:48:47;5.30;1.00
1602;DHT22;794;48.592;9.634;2023-02-01T09:51:19;5.40;1.00
1602;DHT22;794;48.592;9.634;2023-02-01T09:53:55;4.90;1.00
1602;DHT22;794;48.592;9.634;2023-02-01T09:56:32;5.00;1.00
1602;DHT22;794;48.592;9.634;2023-02-01T09:59:08;5.60;1.00
1602;DHT22;794;48.592;9.634;2023-02-01T10:01:39;5.50;1.00
1602;DHT22;794;48.592;9.634;2023-02-01T10:04:09;5.00;1.00
1602;DHT22;794;48.592;9.634;2023-02-01T10:06:56;5.00;1.00
1602;DHT22;794;48.592;9.634;2023-02-01T10:09:45;4.70;1.00
1602;DHT22;794;48.592;9.634;2023-02-01T10:12:33;4.90;1.00
1602;DHT22;794;48.592;9.634;2023-02-01T10:15:18;4.10;1.00
1602;DHT22;794;48.592;9.634;2023-02-01T10:17:59;5.20;1.00
1602;DHT22;794;48.592;9.634;2023-02-01T10:20:34;5.00;1.00
1602;DHT22;794;48.592;9.634;2023-02-01T10:23:15;5.00;1.00
1602;DHT22;794;48.592;9.634;2023-02-01T10:25:54;4.90;1.00
1602;DHT22;794;48.592;9.634;2023-02-01T10:28:22;5.20;1.00
1602;DHT22;794;48.592;9.634;2023-02-01T10:30:54;4.90;1.00
1602;DHT22;794;48.592;9.634;2023-02-01T10:33:26;5.20;1.00
1602;DHT22;794;48.592;9.634;2023-02-01T10:36:04;5.20;1.00
1602;DHT22;794;48.592;9.634;2023-02-01T10:38:33;5.00;1.00
1602;DHT22;794;48.592;9.634;2023-02-01T10:41:02;5.20;1.00
1602;DHT22;794;48.592;9.634;2023-02-01T10:43:30;5.20;1.00
1602;DHT22;794;48.592;9.634;2023-02-01T10:45:59;5.30;1.00
1602;DHT22;794;48.592;9.634;2023-02-01T10:48:28;5.20;1.00
1602;DHT22;794;48.592;9.634;2023-02-01T10:51:00;5.10;1.00
1602;DHT22;794;48.592;9.634;2023-02-01T10:53:31;5.10;1.00
1602;DHT22;794;48.592;9.634;2023-02-01T10:56:06;5.20;1.00
1602;DHT22;794;48.592;9.634;2023-02-01T10:58:34;5.10;1.00
1602;DHT22;794;48.592;9.634;2023-02-01T11:01:04;5.20;1.00
1602;DHT22;794;48.592;9.634;2023-02-01T11:03:54;5.30;1.00
1602;DHT22;794;48.592;9.634;2023-02-01T11:06:27;5.20;1.00
1602;DHT22;794;48.592;9.634;2023-02-01T11:08:58;5.10;1.00
1602;DHT22;794;48.592;9.634;2023-02-01T11:11:26;5.20;1.00
1602;DHT22;794;48.592;9.634;2023-02-01T11:13:57;5.30;1.00
1602;DHT22;794;48.592;9.634;2023-02-01T11:16:34;5.30;1.00
1602;DHT22;794;48.592;9.634;2023-02-01T11:19:03;5.20;1.00
1602;DHT22;794;48.592;9.634;2023-02-01T11:21:31;5.10;1.00
1602;DHT22;794;48.592;9.634;2023-02-01T11:24:02;5.30;1.00
1602;DHT22;794;48.592;9.634;2023-02-01T11:26:30;5.10;1.00
1602;DHT22;794;48.592;9.634;2023-02-01T11:29:00;5.00;1.00
1602;DHT22;794;48.592;9.634;2023-02-01T11:31:29;5.20;1.00
1602;DHT22;794;48.592;9.634;2023-02-01T11:34:00;5.10;1.00
1602;DHT22;794;48.592;9.634;2023-02-01T11:36:33;5.30;1.00
1602;DHT22;794;48.592;9.634;2023-02-01T11:39:18;5.20;1.00
1602;DHT22;794;48.592;9.634;2023-02-01T11:42:00;4.90;1.00
1602;DHT22;794;48.592;9.634;2023-02-01T11:44:33;4.90;1.00
1602;DHT22;794;48.592;9.634;2023-02-01T11:47:19;5.20;1.00
1602;DHT22;794;48.592;9.634;2023-02-01T11:49:47;5.10;1.00
1602;DHT22;794;48.592;9.634;2023-02-01T11:52:21;5.40;1.00
1602;DHT22;794;48.592;9.634;2023-02-01T11:57:57;5.70;1.00
1602;DHT22;794;48.592;9.634;2023-02-01T12:00:46;5.50;1.00
1602;DHT22;794;48.592;9.634;2023-02-01T12:03:40;5.80;1.00
1602;DHT22;794;48.592;9.634;2023-02-01T12:06:19;6.40;1.00
1602;DHT22;794;48.592;9.634;2023-02-01T12:09:03;6.10;1.00
1602;DHT22;794;48.592;9.634;2023-02-01T12:11:46;6.10;1.00
1602;DHT22;794;48.592;9.634;2023-02-01T12:14:27;5.60;1.00
1602;DHT22;794;48.592;9.634;2023-02-01T12:17:14;6.00;1.00
1602;DHT22;794;48.592;9.634;2023-02-01T12:20:01;6.10;1.00
1602;DHT22;794;48.592;9.634;2023-02-01T12:22:38;6.00;1.00
1602;DHT22;794;48.592;9.634;2023-02-01T12:25:22;5.70;1.00
1602;DHT22;794;48.592;9.634;2023-02-01T12:28:04;5.90;1.00
1602;DHT22;794;48.592;9.634;2023-02-01T12:30:50;5.70;1.00
1602;DHT22;794;48.592;9.634;2023-02-01T12:33:27;5.70;1.00
1602;DHT22;794;48.592;9.634;2023-02-01T12:36:07;5.70;1.00
1602;DHT22;794;48.592;9.634;2023-02-01T12:38:54;5.60;1.00
1602;DHT22;794;48.592;9.634;2023-02-01T12:41:47;6.10;1.00
1602;DHT22;794;48.592;9.634;2023-02-01T12:44:26;5.90;1.00
1602;DHT22;794;48.592;9.634;2023-02-01T12:46:57;5.80;1.00
1602;DHT22;794;48.592;9.634;2023-02-01T12:49:33;5.80;1.00
1602;DHT22;794;48.592;9.634;2023-02-01T12:52:06;5.80;1.00
1602;DHT22;794;48.592;9.634;2023-02-01T12:54:40;5.30;1.00
1602;DHT22;794;48.592;9.634;2023-02-01T12:57:13;5.40;1.00
1602;DHT22;794;48.592;9.634;2023-02-01T12:59:46;5.40;1.00
1602;DHT22;794;48.592;9.634;2023-02-01T13:02:18;5.30;1.00
1602;DHT22;794;48.592;9.634;2023-02-01T13:04:55;5.10;1.00
1602;DHT22;794;48.592;9.634;2023-02-01T13:07:30;5.10;1.00
1602;DHT22;794;48.592;9.634;2023-02-01T13:10:05;5.10;1.00
1602;DHT22;794;48.592;9.634;2023-02-01T13:12:43;5.00;1.00
1602;DHT22;794;48.592;9.634;2023-02-01T13:15:16;5.10;1.00
1602;DHT22;794;48.592;9.634;2023-02-01T13:17:44;5.30;1.00
1602;DHT22;794;48.592;9.634;2023-02-01T13:20:21;5.00;1.00
1602;DHT22;794;48.592;9.634;2023-02-01T13:22:54;4.80;1.00
1602;DHT22;794;48.592;9.634;2023-02-01T13:25:33;5.00;1.00
1602;DHT22;794;48.592;9.634;2023-02-01T13:28:06;5.10;1.00
1602;DHT22;794;48.592;9.634;2023-02-01T13:30:52;5.10;1.00
1602;DHT22;794;48.592;9.634;2023-02-01T13:33:38;5.00;1.00
1602;DHT22;794;48.592;9.634;2023-02-01T13:42:16;5.00;1.00
1602;DHT22;794;48.592;9.634;2023-02-01T13:44:47;4.70;1.00
1602;DHT22;794;48.592;9.634;2023-02-01T13:47:28;4.80;1.00
1602;DHT22;794;48.592;9.634;2023-02-01T13:49:56;4.80;1.00
1602;DHT22;794;48.592;9.634;2023-02-01T13:52:34;5.20;1.00
1602;DHT22;794;48.592;9.634;2023-02-01T13:55:31;5.00;1.00
1602;DHT22;794;48.592;9.634;2023-02-01T13:58:20;4.70;1.00
1602;DHT22;794;48.592;9.634;2023-02-01T14:00:50;5.20;1.00
1602;DHT22;794;48.592;9.634;2023-02-01T14:03:20;5.00;1.00
1602;DHT22;794;48.592;9.634;2023-02-01T14:06:18;4.80;1.00
1602;DHT22;794;48.592;9.634;2023-02-01T14:09:32;4.70;1.00
1602;DHT22;794;48.592;9.634;2023-02-01T14:12:42;4.60;1.00
1602;DHT22;794;48.592;9.634;2023-02-01T14:15:25;4.70;1.00
1602;DHT22;794;48.592;9.634;2023-02-01T14:17:55;4.90;1.00
1602;DHT22;794;48.592;9.634;2023-02-01T14:20:45;5.20;1.00
1602;DHT22;794;48.592;9.634;2023-02-01T14:23:37;5.00;1.00
1602;DHT22;794;48.592;9.634;2023-02-01T14:26:12;5.10;1.00
1602;DHT22;794;48.592;9.634;2023-02-01T14:28:44;5.10;1.00
1602;DHT22;794;48.592;9.634;2023-02-01T14:31:43;5.10;1.00
1602;DHT22;794;48.592;9.634;2023-02-01T14:34:16;4.80;1.00
1602;DHT22;794;48.592;9.634;2023-02-01T14:36:50;4.50;1.00
1602;DHT22;794;48.592;9.634;2023-02-01T14:39:24;4.90;1.00
1602;DHT22;794;48.592;9.634;2023-02-01T14:41:57;4.80;1.00
1602;DHT22;794;48.592;9.634;2023-02-01T14:44:30;4.90;1.00
1602;DHT22;794;48.592;9.634;2023-02-01T14:52:41;4.80;1.00
1602;DHT22;794;48.592;9.634;2023-02-01T14:55:15;4.60;1.00
1602;DHT22;794;48.592;9.634;2023-02-01T14:57:46;5.00;1.00
1602;DHT22;794;48.592;9.634;2023-02-01T15:00:22;4.80;1.00
1602;DHT22;794;48.592;9.634;2023-02-01T15:03:01;4.80;1.00
1602;DHT22;794;48.592;9.634;2023-02-01T15:05:49;4.70;1.00
1602;DHT22;794;48.592;9.634;2023-02-01T15:08:26;4.70;1.00
1602;DHT22;794;48.592;9.634;2023-02-01T15:10:55;4.80;1.00
1602;DHT22;794;48.592;9.634;2023-02-01T15:13:26;4.80;1.00
1602;DHT22;794;48.592;9.634;2023-02-01T15:16:15;4.90;1.00
1602;DHT22;794;48.592;9.634;2023-02-01T15:18:49;4.80;1.00
1602;DHT22;794;48.592;9.634;2023-02-01T15:21:23;5.10;1.00
1602;DHT22;794;48.592;9.634;2023-02-01T15:24:11;4.70;1.00
1602;DHT22;794;48.592;9.634;2023-02-01T15:26:46;4.40;1.00
1602;DHT22;794;48.592;9.634;2023-02-01T15:29:22;4.90;1.00
1602;DHT22;794;48.592;9.634;2023-02-01T15:32:01;4.60;1.00
1602;DHT22;794;48.592;9.634;2023-02-01T15:34:54;4.80;1.00
1602;DHT22;794;48.592;9.634;2023-02-01T15:37:33;4.70;1.00
1602;DHT22;794;48.592;9.634;2023-02-01T15:40:19;4.80;1.00
1602;DHT22;794;48.592;9.634;2023-02-01T15:42:53;5.10;1.00
1602;DHT22;794;48.592;9.634;2023-02-01T15:45:26;4.80;1.00
1602;DHT22;794;48.592;9.634;2023-02-01T15:47:58;4.90;1.00
1602;DHT22;794;48.592;9.634;2023-02-01T15:50:40;4.80;1.00
1602;DHT22;794;48.592;9.634;2023-02-01T15:55:57;4.70;1.00
1602;DHT22;794;48.592;9.634;2023-02-01T15:58:50;4.60;1.00
1602;DHT22;794;48.592;9.634;2023-02-01T16:01:19;4.80;1.00
1602;DHT22;794;48.592;9.634;2023-02-01T16:03:47;4.50;1.00
1602;DHT22;794;48.592;9.634;2023-02-01T16:06:27;4.80;1.00
1602;DHT22;794;48.592;9.634;2023-02-01T16:09:01;4.70;1.00
1602;DHT22;794;48.592;9.634;2023-02-01T16:11:30;4.50;1.00
1602;DHT22;794;48.592;9.634;2023-02-01T16:13:59;4.40;1.00
1602;DHT22;794;48.592;9.634;2023-02-01T16:16:29;4.60;1.00
1602;DHT22;794;48.592;9.634;2023-02-01T16:19:03;4.60;1.00
1602;DHT22;794;48.592;9.634;2023-02-01T16:21:32;4.30;1.00
1602;DHT22;794;48.592;9.634;2023-02-01T16:24:01;4.40;1.00
1602;DHT22;794;48.592;9.634;2023-02-01T16:26:31;4.30;1.00
1602;DHT22;794;48.592;9.634;2023-02-01T16:28:59;4.60;1.00
1602;DHT22;794;48.592;9.634;2023-02-01T16:31:30;4.60;1.00
1602;DHT22;794;48.592;9.634;2023-02-01T16:33:59;4.30;1.00
1602;DHT22;794;48.592;9.634;2023-02-01T16:36:26;4.30;1.00
1602;DHT22;794;48.592;9.634;2023-02-01T16:38:54;4.60;1.00
1602;DHT22;794;48.592;9.634;2023-02-01T16:41:23;4.30;1.00
1602;DHT22;794;48.592;9.634;2023-02-01T16:43:52;4.20;1.00
1602;DHT22;794;48.592;9.634;2023-02-01T16:46:20;4.40;1.00
1602;DHT22;794;48.592;9.634;2023-02-01T16:48:53;4.20;1.00
1602;DHT22;794;48.592;9.634;2023-02-01T16:51:20;4.30;1.00
1602;DHT22;794;48.592;9.634;2023-02-01T16:53:48;4.90;1.00
1602;DHT22;794;48.592;9.634;2023-02-01T16:56:17;4.60;1.00
1602;DHT22;794;48.592;9.634;2023-02-01T16:58:46;4.60;1.00
1602;DHT22;794;48.592;9.634;2023-02-01T17:01:14;4.40;1.00
1602;DHT22;794;48.592;9.634;2023-02-01T17:03:42;4.20;1.00
1602;DHT22;794;48.592;9.634;2023-02-01T17:06:12;4.40;1.00
1602;DHT22;794;48.592;9.634;2023-02-01T17:08:41;4.60;1.00
1602;DHT22;794;48.592;9.634;2023-02-01T17:11:10;4.80;1.00
1602;DHT22;794;48.592;9.634;2023-02-01T17:13:37;4.20;1.00
1602;DHT22;794;48.592;9.634;2023-02-01T17:16:19;4.20;1.00
1602;DHT22;794;48.592;9.634;2023-02-01T17:18:50;4.70;1.00
1602;DHT22;794;48.592;9.634;2023-02-01T17:21:18;4.50;1.00
1602;DHT22;794;48.592;9.634;2023-02-01T17:23:45;5.60;1.00
1602;DHT22;794;48.592;9.634;2023-02-01T17:26:12;4.20;1.00
1602;DHT22;794;48.592;9.634;2023-02-01T17:28:39;4.60;1.00
1602;DHT22;794;48.592;9.634;2023-02-01T17:31:09;4.30;1.00
1602;DHT22;794;48.592;9.634;2023-02-01T17:33:38;4.50;1.00
1602;DHT22;794;48.592;9.634;2023-02-01T17:36:08;4.40;1.00
1602;DHT22;794;48.592;9.634;2023-02-01T17:38:36;4.50;1.00
1602;DHT22;794;48.592;9.634;2023-02-01T17:41:04;4.30;1.00
1602;DHT22;794;48.592;9.634;2023-02-01T17:43:31;4.50;1.00
1602;DHT22;794;48.592;9.634;2023-02-01T17:46:01;4.30;1.00
1602;DHT22;794;48.592;9.634;2023-02-01T17:48:31;4.40;1.00
1602;DHT22;794;48.592;9.634;2023-02-01T17:50:58;4.30;1.00
1602;DHT22;794;48.592;9.634;2023-02-01T17:53:27;4.50;1.00